Companheiros Cristo — CUCS8 — position and weather

sailwx.info

Track history (hours):
 
Tides and Currents Weather Stations Pressure Air Temp Water Temp Dewpoint Dewpoint Depression Visibility Wind Speed Wind Dir Waves Ship Positions

Companheiros Cristo

Last reported at 2017-Nov-17 02:23 UTC. Time now 2017-Nov-19 06:57 UTC.
Position N 39°02' W 009°44'.

MMSI: 263406390.

Date/timePositionNaut miles runAvg speedWind from/ knotsBaromVisibWave heightAir tempDewpointWater temp
2017-Nov-17 02:23N 39°02' W 009°44'3 7.0
2017-Nov-17 02:01N 39°04' W 009°42'4 7.0
2017-Nov-17 01:31N 39°06' W 009°39'3 6.8
2017-Nov-17 01:00N 39°09' W 009°36'4 7.0
2017-Nov-17 00:30N 39°11' W 009°33'4 7.2
2017-Nov-17 00:01N 39°14' W 009°30'5 7.3
2017-Nov-16 23:16N 39°18' W 009°26'2 0.2
2017-Nov-16 09:31N 39°16' W 009°25'0 8.0
2017-Nov-16 09:30N 39°16' W 009°25'4 8.2
2017-Nov-16 09:00N 39°12' W 009°26'4 8.3
2017-Nov-16 08:30N 39°08' W 009°28'27 0.8
2017-Nov-14 20:35N 38°58' W 010°00'0 1.3
2017-Nov-14 20:30N 38°58' W 010°00'22 1.3
2017-Nov-14 02:56N 38°59' W 009°32'3 5.9
2017-Nov-14 02:30N 39°01' W 009°31'3 5.9
2017-Nov-14 02:00N 39°04' W 009°29'3 5.7
2017-Nov-14 01:30N 39°07' W 009°28'3 5.5
2017-Nov-14 01:00N 39°09' W 009°27'3 5.4
2017-Nov-14 00:30N 39°12' W 009°26'3 5.5
2017-Nov-14 00:00N 39°14' W 009°25'3 5.4
2017-Nov-13 23:30N 39°17' W 009°24'3 5.5
2017-Nov-13 23:00N 39°20' W 009°23'28 1.0
2017-Nov-12 18:17N 38°58' W 009°46'8 0.4
2017-Nov-11 19:29N 38°50' W 009°44'11 0.3
2017-Nov-10 02:47N 38°55' W 009°31'2 6.2
2017-Nov-10 02:30N 38°57' W 009°30'4 7.2
2017-Nov-10 02:01N 39°00' W 009°29'4 7.2
2017-Nov-10 01:31N 39°04' W 009°28'4 7.3
2017-Nov-10 01:01N 39°07' W 009°27'4 7.3
2017-Nov-10 00:30N 39°11' W 009°26'4 7.2
2017-Nov-10 00:00N 39°14' W 009°25'4 7.2
2017-Nov-09 23:29N 39°18' W 009°24'4 0.5
2017-Nov-09 15:41N 39°21' W 009°22'0 0.0
2017-Nov-09 15:27N 39°21' W 009°22'0 0.0
2017-Nov-09 14:59N 39°21' W 009°22'0 0.0
2017-Nov-09 13:47N 39°21' W 009°22'0 0.1
2017-Nov-09 13:30N 39°21' W 009°22'0 0.0
2017-Nov-09 13:00N 39°21' W 009°22'1 2.4
2017-Nov-09 12:25N 39°20' W 009°23'3 8.3
2017-Nov-09 12:01N 39°17' W 009°24'4 8.0
2017-Nov-09 11:30N 39°13' W 009°25'  
2017-Nov-07 02:43N 38°59' W 009°47'2 7.4
2017-Nov-07 02:30N 39°00' W 009°48'  
Track history (hours):
 
Tides and Currents Weather Stations Pressure Air Temp Water Temp Dewpoint Dewpoint Depression Visibility Wind Speed Wind Dir Waves Ship Positions

Companheiros Cristo

Last reported at 2017-Nov-17 02:23 UTC. Time now 2017-Nov-19 06:57 UTC.
Position N 39°02' W 009°44'.

MMSI: 263406390.

Date/timePositionNaut miles runAvg speedWind from/ knotsBaromVisibWave heightAir tempDewpointWater temp
2017-Nov-17 02:23N 39°02' W 009°44'3 7.0
2017-Nov-17 02:01N 39°04' W 009°42'4 7.0
2017-Nov-17 01:31N 39°06' W 009°39'3 6.8
2017-Nov-17 01:00N 39°09' W 009°36'4 7.0
2017-Nov-17 00:30N 39°11' W 009°33'4 7.2
2017-Nov-17 00:01N 39°14' W 009°30'5 7.3
2017-Nov-16 23:16N 39°18' W 009°26'2 0.2
2017-Nov-16 09:31N 39°16' W 009°25'0 8.0
2017-Nov-16 09:30N 39°16' W 009°25'4 8.2
2017-Nov-16 09:00N 39°12' W 009°26'4 8.3
2017-Nov-16 08:30N 39°08' W 009°28'27 0.8
2017-Nov-14 20:35N 38°58' W 010°00'0 1.3
2017-Nov-14 20:30N 38°58' W 010°00'22 1.3
2017-Nov-14 02:56N 38°59' W 009°32'3 5.9
2017-Nov-14 02:30N 39°01' W 009°31'3 5.9
2017-Nov-14 02:00N 39°04' W 009°29'3 5.7
2017-Nov-14 01:30N 39°07' W 009°28'3 5.5
2017-Nov-14 01:00N 39°09' W 009°27'3 5.4
2017-Nov-14 00:30N 39°12' W 009°26'3 5.5
2017-Nov-14 00:00N 39°14' W 009°25'3 5.4
2017-Nov-13 23:30N 39°17' W 009°24'3 5.5
2017-Nov-13 23:00N 39°20' W 009°23'28 1.0
2017-Nov-12 18:17N 38°58' W 009°46'8 0.4
2017-Nov-11 19:29N 38°50' W 009°44'11 0.3
2017-Nov-10 02:47N 38°55' W 009°31'2 6.2
2017-Nov-10 02:30N 38°57' W 009°30'4 7.2
2017-Nov-10 02:01N 39°00' W 009°29'4 7.2
2017-Nov-10 01:31N 39°04' W 009°28'4 7.3
2017-Nov-10 01:01N 39°07' W 009°27'4 7.3
2017-Nov-10 00:30N 39°11' W 009°26'4 7.2
2017-Nov-10 00:00N 39°14' W 009°25'4 7.2
2017-Nov-09 23:29N 39°18' W 009°24'4 0.5
2017-Nov-09 15:41N 39°21' W 009°22'0 0.0
2017-Nov-09 15:27N 39°21' W 009°22'0 0.0
2017-Nov-09 14:59N 39°21' W 009°22'0 0.0
2017-Nov-09 13:47N 39°21' W 009°22'0 0.1
2017-Nov-09 13:30N 39°21' W 009°22'0 0.0
2017-Nov-09 13:00N 39°21' W 009°22'1 2.4
2017-Nov-09 12:25N 39°20' W 009°23'3 8.3
2017-Nov-09 12:01N 39°17' W 009°24'4 8.0
2017-Nov-09 11:30N 39°13' W 009°25'  
2017-Nov-07 02:43N 38°59' W 009°47'2 7.4
2017-Nov-07 02:30N 39°00' W 009°48'  

Dump ship's entire track history